createdAt,value
2022-09-04T00:01:30.711Z,13.55
2022-09-04T00:04:06.737Z,13.77
2022-09-04T00:06:41.845Z,14.50
2022-09-04T00:09:19.985Z,14.57
2022-09-04T00:11:54.423Z,14.98
2022-09-04T00:14:34.802Z,13.05
2022-09-04T00:17:06.084Z,13.32
2022-09-04T00:19:39.117Z,12.50
2022-09-04T00:22:17.231Z,13.73
2022-09-04T00:24:57.930Z,15.52
2022-09-04T00:27:30.334Z,18.92
2022-09-04T00:30:07.955Z,16.42
2022-09-04T00:32:42.903Z,14.50
2022-09-04T00:35:16.380Z,17.58
2022-09-04T00:37:49.923Z,16.45
2022-09-04T00:40:26.927Z,19.48
2022-09-04T00:43:30.708Z,19.33
2022-09-04T00:46:09.473Z,17.73
2022-09-04T00:48:59.731Z,19.27
2022-09-04T00:51:37.319Z,19.42
2022-09-04T00:54:36.228Z,19.40
2022-09-04T00:57:35.397Z,17.20
2022-09-04T01:00:11.091Z,18.63
2022-09-04T01:02:58.769Z,18.20
2022-09-04T01:05:41.195Z,16.13
2022-09-04T01:08:20.527Z,16.00
2022-09-04T01:11:01.919Z,17.48
2022-09-04T01:13:38.193Z,16.77
2022-09-04T01:16:11.633Z,15.80
2022-09-04T01:18:48.279Z,15.07
2022-09-04T01:21:30.962Z,16.55
2022-09-04T01:24:20.836Z,17.92
2022-09-04T01:27:00.259Z,16.55
2022-09-04T01:29:41.087Z,16.88
2022-09-04T01:32:13.596Z,16.17
2022-09-04T01:34:51.881Z,17.20
2022-09-04T01:37:32.783Z,16.10
2022-09-04T01:40:16.869Z,15.85
2022-09-04T01:42:52.065Z,13.75
2022-09-04T01:45:38.258Z,15.98
2022-09-04T01:48:10.573Z,14.85
2022-09-04T01:50:40.785Z,16.20
2022-09-04T01:53:14.113Z,16.17
2022-09-04T01:55:52.146Z,14.85
2022-09-04T01:58:35.434Z,13.45
2022-09-04T02:01:15.543Z,14.97
2022-09-04T02:03:58.573Z,19.02
2022-09-04T02:06:34.419Z,14.63
2022-09-04T02:09:15.568Z,14.90
2022-09-04T02:11:56.993Z,15.48
2022-09-04T02:14:37.594Z,12.98
2022-09-04T02:17:12.626Z,16.55
2022-09-04T02:20:01.148Z,14.20
2022-09-04T02:22:37.838Z,14.77
2022-09-04T02:25:18.328Z,17.40
2022-09-04T02:27:53.753Z,16.73
2022-09-04T02:30:23.226Z,16.45
2022-09-04T02:33:03.302Z,17.13
2022-09-04T02:35:38.150Z,16.13
2022-09-04T02:38:15.323Z,17.95
2022-09-04T02:40:51.391Z,16.30
2022-09-04T02:43:35.698Z,15.88
2022-09-04T02:46:10.509Z,14.10
2022-09-04T02:48:52.279Z,14.35
2022-09-04T02:51:34.475Z,17.90
2022-09-04T02:54:08.597Z,17.58
2022-09-04T02:56:46.310Z,15.73
2022-09-04T02:59:29.716Z,16.65
2022-09-04T03:02:01.301Z,13.68
2022-09-04T03:04:39.363Z,14.63
2022-09-04T03:07:14.813Z,13.20
2022-09-04T03:09:47.403Z,13.98
2022-09-04T03:12:30.630Z,15.38
2022-09-04T03:15:08.542Z,14.17
2022-09-04T03:17:48.787Z,13.75
2022-09-04T03:20:22.381Z,12.00
2022-09-04T03:22:56.890Z,12.60
2022-09-04T03:25:49.590Z,13.27
2022-09-04T03:28:27.265Z,14.00
2022-09-04T03:30:58.447Z,13.02
2022-09-04T03:33:34.980Z,12.75
2022-09-04T03:36:10.536Z,14.75
2022-09-04T03:38:48.331Z,15.50
2022-09-04T03:41:30.743Z,12.48
2022-09-04T03:44:12.151Z,14.88
2022-09-04T03:46:56.861Z,13.63
2022-09-04T03:49:44.268Z,12.13
2022-09-04T03:52:21.451Z,13.07
2022-09-04T03:55:07.163Z,13.73
2022-09-04T03:58:13.398Z,13.23
2022-09-04T04:00:50.921Z,12.63
2022-09-04T04:03:35.777Z,13.80
2022-09-04T04:06:19.910Z,13.73
2022-09-04T04:09:11.962Z,13.00
2022-09-04T04:11:55.735Z,13.05
2022-09-04T04:14:38.446Z,15.45
2022-09-04T04:17:24.680Z,16.17
2022-09-04T04:20:08.749Z,14.18
2022-09-04T04:23:17.372Z,11.98
2022-09-04T04:26:00.026Z,13.75
2022-09-04T04:29:02.858Z,14.18
2022-09-04T04:31:44.732Z,15.37
2022-09-04T04:34:23.731Z,16.85
2022-09-04T04:36:57.796Z,16.40
2022-09-04T04:39:37.219Z,13.00
2022-09-04T04:42:21.124Z,16.48
2022-09-04T04:45:29.450Z,16.45
2022-09-04T04:48:30.426Z,13.47
2022-09-04T04:51:09.974Z,15.10
2022-09-04T04:53:47.722Z,15.75
2022-09-04T04:56:24.417Z,14.20
2022-09-04T04:59:03.091Z,13.95
2022-09-04T05:01:50.944Z,16.98
2022-09-04T05:04:27.581Z,13.02
2022-09-04T05:07:01.161Z,14.40
2022-09-04T05:09:38.858Z,15.43
2022-09-04T05:12:17.811Z,14.02
2022-09-04T05:14:52.038Z,12.50
2022-09-04T05:17:32.741Z,11.60
2022-09-04T05:20:21.677Z,14.23
2022-09-04T05:23:01.040Z,14.52
2022-09-04T05:25:40.184Z,15.73
2022-09-04T05:28:22.608Z,15.32
2022-09-04T05:30:57.304Z,12.93
2022-09-04T05:33:34.996Z,13.70
2022-09-04T05:36:11.214Z,12.70
2022-09-04T05:38:48.106Z,11.90
2022-09-04T05:41:30.220Z,13.38
2022-09-04T05:44:12.274Z,12.27
2022-09-04T05:46:52.355Z,13.60
2022-09-04T05:49:37.789Z,14.32
2022-09-04T05:52:20.220Z,13.52
2022-09-04T05:55:17.149Z,11.95
2022-09-04T05:57:58.561Z,12.68
2022-09-04T06:00:32.736Z,12.25
2022-09-04T06:03:30.801Z,13.73
2022-09-04T06:06:08.565Z,12.32
2022-09-04T06:09:03.318Z,12.45
2022-09-04T06:11:42.170Z,13.70
2022-09-04T06:14:30.491Z,12.13
2022-09-04T06:17:17.595Z,12.50
2022-09-04T06:20:08.894Z,11.77
2022-09-04T06:22:55.051Z,21.27
2022-09-04T06:26:00.414Z,11.70
2022-09-04T06:28:46.720Z,12.02
2022-09-04T06:31:40.759Z,11.02
2022-09-04T06:34:22.280Z,12.00
2022-09-04T06:37:08.371Z,10.48
2022-09-04T06:39:52.070Z,9.52
2022-09-04T06:42:32.802Z,9.35
2022-09-04T06:45:19.613Z,9.77
2022-09-04T06:48:01.531Z,10.52
2022-09-04T06:50:41.622Z,9.73
2022-09-04T06:53:21.443Z,11.15
2022-09-04T06:56:01.530Z,9.27
2022-09-04T06:58:50.681Z,10.90
2022-09-04T07:01:30.403Z,9.15
2022-09-04T07:04:11.063Z,8.77
2022-09-04T07:06:54.753Z,8.88
2022-09-04T07:09:29.718Z,10.15
2022-09-04T07:12:22.129Z,8.52
2022-09-04T07:15:31.491Z,8.13
2022-09-04T07:18:12.261Z,7.38
2022-09-04T07:20:50.713Z,7.65
2022-09-04T07:23:25.700Z,7.72
2022-09-04T07:26:03.946Z,8.30
2022-09-04T07:28:47.369Z,8.50
2022-09-04T07:31:20.890Z,10.18
2022-09-04T07:33:57.549Z,7.43
2022-09-04T07:36:33.028Z,6.80
2022-09-04T07:39:10.739Z,10.90
2022-09-04T07:41:45.823Z,10.40
2022-09-04T07:44:21.014Z,6.38
2022-09-04T07:46:57.771Z,8.32
2022-09-04T07:49:36.290Z,8.73
2022-09-04T07:52:12.107Z,8.05
2022-09-04T07:54:58.768Z,8.15
2022-09-04T07:58:04.006Z,6.55
2022-09-04T08:00:42.594Z,7.57
2022-09-04T08:03:53.673Z,7.25
2022-09-04T08:06:31.406Z,6.53
2022-09-04T08:09:22.379Z,7.13
2022-09-04T08:12:32.134Z,6.18
2022-09-04T08:15:15.489Z,10.18
2022-09-04T08:17:59.657Z,6.70
2022-09-04T08:20:40.126Z,5.97
2022-09-04T08:23:23.501Z,5.25
2022-09-04T08:25:59.029Z,4.90
2022-09-04T08:28:46.435Z,5.47
2022-09-04T08:31:24.479Z,4.75
2022-09-04T08:34:29.255Z,4.75
2022-09-04T08:37:05.816Z,6.32
2022-09-04T08:39:45.794Z,5.00
2022-09-04T08:42:48.131Z,6.05
2022-09-04T08:45:46.886Z,5.18
2022-09-04T08:48:54.624Z,5.88
2022-09-04T08:51:57.278Z,5.35
2022-09-04T08:55:16.562Z,6.93
2022-09-04T08:58:17.556Z,5.88
2022-09-04T09:01:08.351Z,6.07
2022-09-04T09:04:06.101Z,5.68
2022-09-04T09:07:13.745Z,5.60
2022-09-04T09:10:15.221Z,6.38
2022-09-04T09:13:07.820Z,4.63
2022-09-04T09:16:10.094Z,7.05
2022-09-04T09:18:40.675Z,5.45
2022-09-04T09:21:11.611Z,6.07
2022-09-04T09:23:52.634Z,5.18
2022-09-04T09:26:29.545Z,5.22
2022-09-04T09:29:29.205Z,5.70
2022-09-04T09:32:31.496Z,5.07
2022-09-04T09:35:37.178Z,5.32
2022-09-04T09:38:35.760Z,6.30
2022-09-04T09:41:39.350Z,6.07
2022-09-04T09:44:50.148Z,5.43
2022-09-04T09:47:53.759Z,5.20
2022-09-04T09:50:46.698Z,5.53
2022-09-04T09:54:00.161Z,6.47
2022-09-04T09:57:03.121Z,4.82
2022-09-04T10:00:07.255Z,6.78
2022-09-04T10:03:07.995Z,5.97
2022-09-04T10:06:13.022Z,5.18
2022-09-04T10:09:29.174Z,8.52
2022-09-04T10:12:35.277Z,6.05
2022-09-04T10:15:37.743Z,6.70
2022-09-04T10:18:45.865Z,5.78
2022-09-04T10:21:46.931Z,5.03
2022-09-04T10:24:50.230Z,7.15
2022-09-04T10:27:49.865Z,6.13
2022-09-04T10:30:21.619Z,6.35
2022-09-04T10:33:18.592Z,6.03
2022-09-04T10:36:12.203Z,5.80
2022-09-04T10:39:03.591Z,6.50
2022-09-04T10:41:49.225Z,6.00
2022-09-04T10:44:46.217Z,6.70
2022-09-04T10:47:28.139Z,8.02
2022-09-04T10:50:17.693Z,6.43
2022-09-04T10:53:15.838Z,5.30
2022-09-04T10:56:03.474Z,4.82
2022-09-04T10:58:56.823Z,5.53
2022-09-04T11:02:03.163Z,5.78
2022-09-04T11:05:07.136Z,7.25
2022-09-04T11:07:57.070Z,5.88
2022-09-04T11:10:39.677Z,5.70
2022-09-04T11:13:42.968Z,5.78
2022-09-04T11:16:40.242Z,4.53
2022-09-04T11:19:52.026Z,5.03
2022-09-04T11:22:56.445Z,5.50
2022-09-04T11:28:36.194Z,5.85
2022-09-04T11:31:26.119Z,5.97
2022-09-04T11:34:40.560Z,6.28
2022-09-04T11:37:49.715Z,6.32
2022-09-04T11:40:47.386Z,6.05
2022-09-04T11:43:41.115Z,5.30
2022-09-04T11:46:32.229Z,5.25
2022-09-04T11:49:31.490Z,4.97
2022-09-04T11:52:09.458Z,6.43
2022-09-04T11:55:10.307Z,5.60
2022-09-04T11:57:54.511Z,4.78
2022-09-04T12:00:24.029Z,4.75
2022-09-04T12:03:18.681Z,8.32
2022-09-04T12:06:05.326Z,5.88
2022-09-04T12:09:08.736Z,5.07
2022-09-04T12:12:11.628Z,5.57
2022-09-04T12:14:56.368Z,5.57
2022-09-04T12:17:50.214Z,5.35
2022-09-04T12:20:45.434Z,4.90
2022-09-04T12:23:33.959Z,4.85
2022-09-04T12:26:23.134Z,5.25
2022-09-04T12:29:24.878Z,6.15
2022-09-04T12:32:39.610Z,6.93
2022-09-04T12:38:33.903Z,5.30
2022-09-04T12:41:10.647Z,6.63
2022-09-04T12:43:53.737Z,6.28
2022-09-04T12:46:41.777Z,5.70
2022-09-04T12:49:31.054Z,6.57
2022-09-04T12:52:19.263Z,4.60
2022-09-04T12:55:01.487Z,5.55
2022-09-04T12:57:40.954Z,4.60
2022-09-04T13:00:10.952Z,5.38
2022-09-04T13:02:50.339Z,7.28
2022-09-04T13:05:53.062Z,6.47
2022-09-04T13:08:37.281Z,5.88
2022-09-04T13:11:18.865Z,5.45
2022-09-04T13:13:55.688Z,5.43
2022-09-04T13:16:29.679Z,5.13
2022-09-04T13:19:08.951Z,5.25
2022-09-04T13:21:57.686Z,6.13
2022-09-04T13:24:44.580Z,4.97
2022-09-04T13:27:34.308Z,6.50
2022-09-04T13:30:08.013Z,5.20
2022-09-04T13:33:02.390Z,6.07
2022-09-04T13:35:44.897Z,4.72
2022-09-04T13:38:37.353Z,4.97
2022-09-04T13:41:25.042Z,6.40
2022-09-04T13:44:31.835Z,5.63
2022-09-04T13:47:08.203Z,5.35
2022-09-04T13:49:41.477Z,5.32
2022-09-04T13:52:16.540Z,5.60
2022-09-04T13:54:48.487Z,7.25
2022-09-04T13:57:21.145Z,6.43
2022-09-04T13:59:50.893Z,5.20
2022-09-04T14:02:25.514Z,4.85
2022-09-04T14:04:57.430Z,5.53
2022-09-04T14:07:29.462Z,6.15
2022-09-04T14:10:05.078Z,5.68
2022-09-04T14:12:54.101Z,5.25
2022-09-04T14:15:46.985Z,6.57
2022-09-04T14:18:36.537Z,5.25
2022-09-04T14:21:20.263Z,6.90
2022-09-04T14:23:55.514Z,6.60
2022-09-04T14:26:35.865Z,7.32
2022-09-04T14:29:15.741Z,4.82
2022-09-04T14:31:56.579Z,5.93
2022-09-04T14:34:38.888Z,7.35
2022-09-04T14:37:19.915Z,5.28
2022-09-04T14:39:50.297Z,6.32
2022-09-04T14:42:42.684Z,6.95
2022-09-04T14:45:30.119Z,7.90
2022-09-04T14:48:03.731Z,5.25
2022-09-04T14:53:05.807Z,6.80
2022-09-04T14:55:35.991Z,5.82
2022-09-04T14:58:13.754Z,9.07
2022-09-04T15:00:59.624Z,6.93
2022-09-04T15:03:33.050Z,7.75
2022-09-04T15:06:09.070Z,8.10
2022-09-04T15:08:42.281Z,7.47
2022-09-04T15:11:13.305Z,7.07
2022-09-04T15:13:53.766Z,7.88
2022-09-04T15:16:43.214Z,6.32
2022-09-04T15:19:26.549Z,7.68
2022-09-04T15:22:01.298Z,5.70
2022-09-04T15:24:35.903Z,6.85
2022-09-04T15:27:13.699Z,5.25
2022-09-04T15:30:00.365Z,9.02
2022-09-04T15:32:31.949Z,6.65
2022-09-04T15:35:18.289Z,6.25
2022-09-04T15:37:49.547Z,8.00
2022-09-04T15:40:29.106Z,7.82
2022-09-04T15:43:05.338Z,7.45
2022-09-04T15:45:43.180Z,10.07
2022-09-04T15:48:23.674Z,9.13
2022-09-04T15:50:59.639Z,9.93
2022-09-04T15:53:31.289Z,7.68
2022-09-04T15:56:10.454Z,8.57
2022-09-04T15:58:49.357Z,7.63
2022-09-04T16:01:26.108Z,8.63
2022-09-04T16:04:05.406Z,11.13
2022-09-04T16:06:43.290Z,12.43
2022-09-04T16:09:21.670Z,12.50
2022-09-04T16:11:59.831Z,11.05
2022-09-04T16:14:32.213Z,9.15
2022-09-04T16:17:07.383Z,8.68
2022-09-04T16:19:41.833Z,7.40
2022-09-04T16:22:23.336Z,8.88
2022-09-04T16:24:56.229Z,6.22
2022-09-04T16:27:27.136Z,7.25
2022-09-04T16:29:59.438Z,6.95
2022-09-04T16:32:32.258Z,6.65
2022-09-04T16:35:04.958Z,7.50
2022-09-04T16:37:40.127Z,7.63
2022-09-04T16:40:24.269Z,9.07
2022-09-04T16:43:00.113Z,7.00
2022-09-04T16:45:32.405Z,6.95
2022-09-04T16:48:25.100Z,7.22
2022-09-04T16:51:23.519Z,7.10
2022-09-04T16:53:58.991Z,8.27
2022-09-04T16:56:36.911Z,6.45
2022-09-04T16:59:17.535Z,9.27
2022-09-04T17:01:50.564Z,7.28
2022-09-04T17:04:39.804Z,8.77
2022-09-04T17:07:16.842Z,6.85
2022-09-04T17:09:55.960Z,7.80
2022-09-04T17:12:33.938Z,6.47
2022-09-04T17:15:12.862Z,8.30
2022-09-04T17:17:43.155Z,8.40
2022-09-04T17:20:21.955Z,7.47
2022-09-04T17:28:59.807Z,13.45
2022-09-04T17:29:07.925Z,5.13
2022-09-04T17:29:19.056Z,7.28
2022-09-04T17:31:45.885Z,5.95
2022-09-04T17:40:33.905Z,8.48
2022-09-04T17:40:39.450Z,7.82
2022-09-04T17:40:55.964Z,5.50
2022-09-04T17:43:23.381Z,7.57
2022-09-04T17:46:05.669Z,9.60
2022-09-04T17:48:40.689Z,7.10
2022-09-04T17:51:09.699Z,8.90
2022-09-04T17:53:46.985Z,7.03
2022-09-04T17:56:22.685Z,10.88
2022-09-04T17:58:56.903Z,6.90
2022-09-04T18:01:28.640Z,9.23
2022-09-04T18:04:26.343Z,8.55
2022-09-04T18:07:29.942Z,8.07
2022-09-04T18:10:04.094Z,8.63
2022-09-04T18:12:38.930Z,6.38
2022-09-04T18:15:33.737Z,5.97
2022-09-04T18:18:13.247Z,6.13
2022-09-04T18:20:51.572Z,8.68
2022-09-04T18:23:51.398Z,5.95
2022-09-04T18:26:40.137Z,6.68
2022-09-04T18:33:28.387Z,8.05
2022-09-04T18:37:09.010Z,7.25
2022-09-04T18:37:21.502Z,7.13
2022-09-04T18:38:19.756Z,7.03
2022-09-04T18:43:00.635Z,7.93
2022-09-04T18:50:40.540Z,10.73
2022-09-04T18:50:44.116Z,9.27
2022-09-04T18:50:48.965Z,11.38
2022-09-04T18:52:19.557Z,9.32
2022-09-04T18:54:51.206Z,7.22
2022-09-04T18:57:28.382Z,8.45
2022-09-04T19:00:08.463Z,8.05
2022-09-04T19:02:52.882Z,7.45
2022-09-04T19:05:24.619Z,6.57
2022-09-04T19:07:57.971Z,7.72
2022-09-04T19:10:29.306Z,5.95
2022-09-04T19:13:02.824Z,6.70
2022-09-04T19:15:43.890Z,4.40
2022-09-04T19:18:24.670Z,4.75
2022-09-04T19:21:05.146Z,5.45
2022-09-04T19:23:41.367Z,7.55
2022-09-04T19:26:19.378Z,5.10
2022-09-04T19:28:52.345Z,6.18
2022-09-04T19:31:32.200Z,5.55
2022-09-04T19:34:10.331Z,5.45
2022-09-04T19:36:44.918Z,5.25
2022-09-04T19:44:25.565Z,5.15
2022-09-04T19:46:03.054Z,5.53
2022-09-04T19:46:17.179Z,5.88
2022-09-04T19:48:25.376Z,6.55
2022-09-04T19:53:33.087Z,5.00
2022-09-04T19:53:57.595Z,4.95
2022-09-04T19:56:31.666Z,6.53
2022-09-04T19:59:06.717Z,5.70
2022-09-04T20:01:46.475Z,6.43
2022-09-04T20:04:26.271Z,5.00
2022-09-04T20:06:59.624Z,5.50
2022-09-04T20:09:34.089Z,4.78
2022-09-04T20:12:11.096Z,5.35
2022-09-04T20:14:45.363Z,5.13
2022-09-04T20:17:29.948Z,5.20
2022-09-04T20:20:03.605Z,6.38
2022-09-04T20:22:36.267Z,5.63
2022-09-04T20:25:36.751Z,6.13
2022-09-04T20:28:17.334Z,7.78
2022-09-04T20:31:00.952Z,8.50
2022-09-04T20:33:31.480Z,5.20
2022-09-04T20:36:05.995Z,5.20
2022-09-04T20:38:45.814Z,5.88
2022-09-04T20:41:21.730Z,5.15
2022-09-04T20:44:00.281Z,5.20
2022-09-04T20:51:51.199Z,5.88
2022-09-04T20:52:55.656Z,6.53
2022-09-04T20:53:08.703Z,7.60
2022-09-04T20:55:46.814Z,8.63
2022-09-04T21:03:11.045Z,6.53
2022-09-04T21:03:19.367Z,6.55
2022-09-04T21:04:42.514Z,5.95
2022-09-04T21:07:23.204Z,6.43
2022-09-04T21:10:00.770Z,5.93
2022-09-04T21:12:37.211Z,7.35
2022-09-04T21:15:14.325Z,6.13
2022-09-04T21:18:03.685Z,5.85
2022-09-04T21:21:00.108Z,5.72
2022-09-04T21:24:03.448Z,6.22
2022-09-04T21:27:01.334Z,6.88
2022-09-04T21:29:53.131Z,7.95
2022-09-04T21:32:41.660Z,9.35
2022-09-04T21:35:17.537Z,7.13
2022-09-04T21:37:52.161Z,6.82
2022-09-04T21:40:52.957Z,7.22
2022-09-04T21:44:00.320Z,6.40
2022-09-04T21:46:46.766Z,7.88
2022-09-04T21:49:31.229Z,7.25
2022-09-04T21:52:26.339Z,5.88
2022-09-04T21:57:08.937Z,8.45
2022-09-04T22:02:30.373Z,5.80
2022-09-04T22:02:46.085Z,10.05
2022-09-04T22:04:42.777Z,6.22
2022-09-04T22:08:56.101Z,5.32
2022-09-04T22:13:35.445Z,6.75
2022-09-04T22:13:48.380Z,10.40
2022-09-04T22:16:29.525Z,6.85
2022-09-04T22:19:38.285Z,7.82
2022-09-04T22:22:36.383Z,6.72
2022-09-04T22:25:20.642Z,6.30
2022-09-04T22:30:50.588Z,7.18
2022-09-04T22:34:15.779Z,6.35
2022-09-04T22:39:58.705Z,7.53
2022-09-04T22:42:45.904Z,6.70
2022-09-04T22:45:45.879Z,7.68
2022-09-04T22:48:30.621Z,8.10
2022-09-04T22:51:14.996Z,9.45
2022-09-04T22:54:02.855Z,6.72
2022-09-04T22:56:49.107Z,6.63
2022-09-04T22:59:40.026Z,7.15
2022-09-04T23:03:06.730Z,9.65
2022-09-04T23:06:24.837Z,11.05
2022-09-04T23:13:48.667Z,6.75
2022-09-04T23:13:59.759Z,8.00
2022-09-04T23:15:37.218Z,7.05
2022-09-04T23:20:50.200Z,6.35
2022-09-04T23:26:41.491Z,9.82
2022-09-04T23:26:43.385Z,7.45
2022-09-04T23:27:32.436Z,7.10
2022-09-04T23:30:23.097Z,5.93
2022-09-04T23:33:33.241Z,5.95
2022-09-04T23:36:33.506Z,7.05
2022-09-04T23:39:49.014Z,6.97
2022-09-04T23:42:40.182Z,8.85
2022-09-04T23:45:22.860Z,8.82
2022-09-04T23:48:19.257Z,6.72
2022-09-04T23:50:55.110Z,6.22
2022-09-04T23:53:36.261Z,7.10
2022-09-04T23:56:15.931Z,6.68
2022-09-04T23:59:26.454Z,5.63
